sensor_id;sensor_type;location;lat;lon;timestamp;pressure;altitude;pressure_sealevel;temperature;humidity
48862;BME280;34681;49.188;-0.374;2022-12-05T00:00:57;101476.06;;;5.12;nan
48862;BME280;34681;49.188;-0.374;2022-12-05T00:03:24;101475.59;;;5.19;nan
48862;BME280;34681;49.188;-0.374;2022-12-05T00:05:50;101484.34;;;5.53;nan
48862;BME280;34681;49.188;-0.374;2022-12-05T00:08:16;101487.38;;;5.77;nan
48862;BME280;34681;49.188;-0.374;2022-12-05T00:10:41;101493.59;;;5.93;nan
48862;BME280;34681;49.188;-0.374;2022-12-05T00:13:07;101500.25;;;5.30;nan
48862;BME280;34681;49.188;-0.374;2022-12-05T00:15:39;101504.94;;;5.13;nan
48862;BME280;34681;49.188;-0.374;2022-12-05T00:18:05;101505.03;;;4.97;nan
48862;BME280;34681;49.188;-0.374;2022-12-05T00:20:31;101505.88;;;5.42;nan
48862;BME280;34681;49.188;-0.374;2022-12-05T00:22:57;101502.97;;;5.45;nan
48862;BME280;34681;49.188;-0.374;2022-12-05T00:25:22;101510.03;;;5.33;nan
48862;BME280;34681;49.188;-0.374;2022-12-05T00:27:48;101513.34;;;5.52;nan
48862;BME280;34681;49.188;-0.374;2022-12-05T00:30:13;101518.84;;;5.22;nan
48862;BME280;34681;49.188;-0.374;2022-12-05T00:32:38;101511.31;;;5.84;nan
48862;BME280;34681;49.188;-0.374;2022-12-05T00:35:04;101518.13;;;6.06;nan
48862;BME280;34681;49.188;-0.374;2022-12-05T00:37:29;101518.97;;;5.78;nan
48862;BME280;34681;49.188;-0.374;2022-12-05T00:39:55;101531.84;;;5.01;nan
48862;BME280;34681;49.188;-0.374;2022-12-05T00:42:20;101529.47;;;4.81;nan
48862;BME280;34681;49.188;-0.374;2022-12-05T00:44:48;101527.16;;;5.19;nan
48862;BME280;34681;49.188;-0.374;2022-12-05T00:47:14;101539.19;;;5.29;nan
48862;BME280;34681;49.188;-0.374;2022-12-05T00:49:40;101534.06;;;4.95;nan
48862;BME280;34681;49.188;-0.374;2022-12-05T00:52:05;101535.75;;;5.12;nan
48862;BME280;34681;49.188;-0.374;2022-12-05T00:54:30;101539.28;;;5.14;nan
48862;BME280;34681;49.188;-0.374;2022-12-05T00:56:56;101544.50;;;5.17;nan
48862;BME280;34681;49.188;-0.374;2022-12-05T00:59:21;101537.19;;;5.03;nan
48862;BME280;34681;49.188;-0.374;2022-12-05T01:01:48;101543.31;;;5.06;nan
48862;BME280;34681;49.188;-0.374;2022-12-05T01:04:18;101544.09;;;5.08;nan
48862;BME280;34681;49.188;-0.374;2022-12-05T01:06:44;101550.41;;;5.68;nan
48862;BME280;34681;49.188;-0.374;2022-12-05T01:09:12;101543.91;;;5.70;nan
48862;BME280;34681;49.188;-0.374;2022-12-05T01:11:38;101551.44;;;5.51;nan
48862;BME280;34681;49.188;-0.374;2022-12-05T01:14:04;101553.59;;;5.60;nan
48862;BME280;34681;49.188;-0.374;2022-12-05T01:16:32;101563.53;;;5.89;nan
48862;BME280;34681;49.188;-0.374;2022-12-05T01:18:59;101561.34;;;5.96;nan
48862;BME280;34681;49.188;-0.374;2022-12-05T01:21:25;101560.94;;;5.44;nan
48862;BME280;34681;49.188;-0.374;2022-12-05T01:23:50;101555.88;;;5.23;nan
48862;BME280;34681;49.188;-0.374;2022-12-05T01:26:18;101563.31;;;5.20;nan
48862;BME280;34681;49.188;-0.374;2022-12-05T01:28:44;101559.16;;;5.28;nan
48862;BME280;34681;49.188;-0.374;2022-12-05T01:31:22;101563.28;;;5.50;nan
48862;BME280;34681;49.188;-0.374;2022-12-05T01:33:49;101562.88;;;5.12;nan
48862;BME280;34681;49.188;-0.374;2022-12-05T01:36:15;101567.81;;;5.35;nan
48862;BME280;34681;49.188;-0.374;2022-12-05T01:38:41;101573.53;;;5.45;nan
48862;BME280;34681;49.188;-0.374;2022-12-05T01:41:10;101570.00;;;5.58;nan
48862;BME280;34681;49.188;-0.374;2022-12-05T01:43:57;101575.69;;;5.54;nan
48862;BME280;34681;49.188;-0.374;2022-12-05T01:46:23;101574.41;;;6.04;nan
48862;BME280;34681;49.188;-0.374;2022-12-05T01:48:51;101572.31;;;6.50;nan
48862;BME280;34681;49.188;-0.374;2022-12-05T01:51:17;101573.69;;;6.29;nan
48862;BME280;34681;49.188;-0.374;2022-12-05T01:53:43;101583.22;;;5.34;nan
48862;BME280;34681;49.188;-0.374;2022-12-05T01:56:08;101579.91;;;4.99;nan
48862;BME280;34681;49.188;-0.374;2022-12-05T01:58:36;101578.44;;;4.78;nan
48862;BME280;34681;49.188;-0.374;2022-12-05T02:01:03;101579.84;;;4.69;nan
48862;BME280;34681;49.188;-0.374;2022-12-05T02:03:28;101574.97;;;4.44;nan
48862;BME280;34681;49.188;-0.374;2022-12-05T02:05:56;101580.38;;;4.60;nan
48862;BME280;34681;49.188;-0.374;2022-12-05T02:08:22;101576.41;;;4.97;nan
48862;BME280;34681;49.188;-0.374;2022-12-05T02:10:51;101579.28;;;4.94;nan
48862;BME280;34681;49.188;-0.374;2022-12-05T02:13:27;101586.94;;;5.18;nan
48862;BME280;34681;49.188;-0.374;2022-12-05T02:24:58;101585.78;;;4.76;nan
48862;BME280;34681;49.188;-0.374;2022-12-05T02:27:57;101591.19;;;4.92;nan
48862;BME280;34681;49.188;-0.374;2022-12-05T02:30:32;101588.31;;;5.25;nan
48862;BME280;34681;49.188;-0.374;2022-12-05T02:38:37;101596.22;;;5.44;nan
48862;BME280;34681;49.188;-0.374;2022-12-05T02:41:36;101591.66;;;5.88;nan
48862;BME280;34681;49.188;-0.374;2022-12-05T02:44:31;101596.63;;;6.10;nan
48862;BME280;34681;49.188;-0.374;2022-12-05T02:46:54;101600.53;;;5.02;nan
48862;BME280;34681;49.188;-0.374;2022-12-05T02:49:28;101595.75;;;4.91;nan
48862;BME280;34681;49.188;-0.374;2022-12-05T02:51:57;101591.25;;;5.36;nan
48862;BME280;34681;49.188;-0.374;2022-12-05T02:54:25;101594.38;;;5.44;nan
48862;BME280;34681;49.188;-0.374;2022-12-05T02:56:52;101597.81;;;5.62;nan
48862;BME280;34681;49.188;-0.374;2022-12-05T02:59:19;101591.88;;;6.14;nan
48862;BME280;34681;49.188;-0.374;2022-12-05T03:01:45;101591.97;;;5.98;nan
48862;BME280;34681;49.188;-0.374;2022-12-05T03:04:15;101591.00;;;5.99;nan
48862;BME280;34681;49.188;-0.374;2022-12-05T03:06:51;101597.63;;;5.65;nan
48862;BME280;34681;49.188;-0.374;2022-12-05T03:09:22;101588.59;;;5.50;nan
48862;BME280;34681;49.188;-0.374;2022-12-05T03:11:55;101592.47;;;5.46;nan
48862;BME280;34681;49.188;-0.374;2022-12-05T03:14:29;101598.97;;;5.58;nan
48862;BME280;34681;49.188;-0.374;2022-12-05T03:17:00;101598.09;;;6.30;nan
48862;BME280;34681;49.188;-0.374;2022-12-05T03:19:31;101588.56;;;6.09;nan
48862;BME280;34681;49.188;-0.374;2022-12-05T03:22:11;101593.66;;;5.56;nan
48862;BME280;34681;49.188;-0.374;2022-12-05T03:24:40;101598.38;;;5.39;nan
48862;BME280;34681;49.188;-0.374;2022-12-05T03:30:02;101591.44;;;5.33;nan
48862;BME280;34681;49.188;-0.374;2022-12-05T03:44:08;101602.06;;;6.80;nan
48862;BME280;34681;49.188;-0.374;2022-12-05T03:46:49;101600.25;;;6.52;nan
48862;BME280;34681;49.188;-0.374;2022-12-05T03:49:31;101603.47;;;6.44;nan
48862;BME280;34681;49.188;-0.374;2022-12-05T03:52:08;101609.91;;;6.01;nan
48862;BME280;34681;49.188;-0.374;2022-12-05T03:54:38;101614.53;;;5.84;nan
48862;BME280;34681;49.188;-0.374;2022-12-05T03:57:24;101613.69;;;6.41;nan
48862;BME280;34681;49.188;-0.374;2022-12-05T04:00:10;101614.00;;;6.78;nan
48862;BME280;34681;49.188;-0.374;2022-12-05T04:05:15;101614.25;;;5.89;nan
48862;BME280;34681;49.188;-0.374;2022-12-05T04:07:45;101622.41;;;6.60;nan
48862;BME280;34681;49.188;-0.374;2022-12-05T04:10:17;101616.94;;;6.74;nan
48862;BME280;34681;49.188;-0.374;2022-12-05T04:12:45;101630.38;;;7.04;nan
48862;BME280;34681;49.188;-0.374;2022-12-05T04:15:18;101615.56;;;7.09;nan
48862;BME280;34681;49.188;-0.374;2022-12-05T04:17:53;101624.28;;;7.14;nan
48862;BME280;34681;49.188;-0.374;2022-12-05T04:23:11;101620.59;;;7.15;nan
48862;BME280;34681;49.188;-0.374;2022-12-05T04:28:31;101623.84;;;7.47;nan
48862;BME280;34681;49.188;-0.374;2022-12-05T04:31:05;101630.28;;;7.46;nan
48862;BME280;34681;49.188;-0.374;2022-12-05T04:33:42;101633.88;;;7.59;nan
48862;BME280;34681;49.188;-0.374;2022-12-05T04:38:51;101636.41;;;7.62;nan
48862;BME280;34681;49.188;-0.374;2022-12-05T04:41:32;101633.13;;;7.57;nan
48862;BME280;34681;49.188;-0.374;2022-12-05T04:44:02;101639.44;;;7.57;nan
48862;BME280;34681;49.188;-0.374;2022-12-05T04:46:32;101631.56;;;7.53;nan
48862;BME280;34681;49.188;-0.374;2022-12-05T04:49:00;101635.63;;;7.60;nan
48862;BME280;34681;49.188;-0.374;2022-12-05T04:51:32;101633.78;;;7.60;nan
48862;BME280;34681;49.188;-0.374;2022-12-05T04:54:04;101636.72;;;7.57;nan
48862;BME280;34681;49.188;-0.374;2022-12-05T04:56:36;101638.69;;;7.55;nan
48862;BME280;34681;49.188;-0.374;2022-12-05T04:59:02;101645.13;;;7.67;nan
48862;BME280;34681;49.188;-0.374;2022-12-05T05:01:44;101647.63;;;7.57;nan
48862;BME280;34681;49.188;-0.374;2022-12-05T05:04:25;101645.13;;;7.54;nan
48862;BME280;34681;49.188;-0.374;2022-12-05T05:06:53;101654.16;;;7.55;nan
48862;BME280;34681;49.188;-0.374;2022-12-05T05:09:18;101659.50;;;7.69;nan
48862;BME280;34681;49.188;-0.374;2022-12-05T05:11:44;101657.69;;;7.70;nan
48862;BME280;34681;49.188;-0.374;2022-12-05T05:14:09;101660.19;;;7.73;nan
48862;BME280;34681;49.188;-0.374;2022-12-05T05:16:37;101660.19;;;7.73;nan
48862;BME280;34681;49.188;-0.374;2022-12-05T05:19:04;101666.16;;;7.65;nan
48862;BME280;34681;49.188;-0.374;2022-12-05T05:23:56;101676.41;;;7.74;nan
48862;BME280;34681;49.188;-0.374;2022-12-05T05:26:23;101672.94;;;7.85;nan
48862;BME280;34681;49.188;-0.374;2022-12-05T05:28:49;101674.91;;;7.70;nan
48862;BME280;34681;49.188;-0.374;2022-12-05T05:31:16;101687.19;;;7.36;nan
48862;BME280;34681;49.188;-0.374;2022-12-05T05:33:42;101688.13;;;7.49;nan
48862;BME280;34681;49.188;-0.374;2022-12-05T05:36:12;101688.81;;;7.66;nan
48862;BME280;34681;49.188;-0.374;2022-12-05T05:38:43;101690.25;;;7.71;nan
48862;BME280;34681;49.188;-0.374;2022-12-05T05:41:17;101690.91;;;7.62;nan
48862;BME280;34681;49.188;-0.374;2022-12-05T05:43:43;101697.56;;;7.71;nan
48862;BME280;34681;49.188;-0.374;2022-12-05T05:46:10;101702.91;;;7.72;nan
48862;BME280;34681;49.188;-0.374;2022-12-05T05:48:35;101702.16;;;7.83;nan
48862;BME280;34681;49.188;-0.374;2022-12-05T05:51:03;101707.72;;;7.27;nan
48862;BME280;34681;49.188;-0.374;2022-12-05T05:53:29;101706.72;;;7.43;nan
48862;BME280;34681;49.188;-0.374;2022-12-05T05:55:55;101711.03;;;7.59;nan
48862;BME280;34681;49.188;-0.374;2022-12-05T05:58:21;101715.41;;;7.62;nan
48862;BME280;34681;49.188;-0.374;2022-12-05T06:00:46;101721.28;;;7.69;nan
48862;BME280;34681;49.188;-0.374;2022-12-05T06:03:12;101729.94;;;7.75;nan
48862;BME280;34681;49.188;-0.374;2022-12-05T06:05:37;101726.72;;;7.69;nan
48862;BME280;34681;49.188;-0.374;2022-12-05T06:08:03;101728.34;;;7.58;nan
48862;BME280;34681;49.188;-0.374;2022-12-05T06:10:29;101727.19;;;7.63;nan
48862;BME280;34681;49.188;-0.374;2022-12-05T06:12:58;101736.56;;;7.71;nan
48862;BME280;34681;49.188;-0.374;2022-12-05T06:15:24;101742.13;;;7.70;nan
48862;BME280;34681;49.188;-0.374;2022-12-05T06:17:49;101733.69;;;7.87;nan
48862;BME280;34681;49.188;-0.374;2022-12-05T06:20:14;101742.47;;;7.78;nan
48862;BME280;34681;49.188;-0.374;2022-12-05T06:22:40;101741.53;;;7.92;nan
48862;BME280;34681;49.188;-0.374;2022-12-05T06:25:06;101740.75;;;7.89;nan
48862;BME280;34681;49.188;-0.374;2022-12-05T06:27:32;101743.09;;;7.69;nan
48862;BME280;34681;49.188;-0.374;2022-12-05T06:29:58;101749.31;;;7.71;nan
48862;BME280;34681;49.188;-0.374;2022-12-05T06:32:24;101754.16;;;7.80;nan
48862;BME280;34681;49.188;-0.374;2022-12-05T06:34:49;101754.44;;;7.75;nan
48862;BME280;34681;49.188;-0.374;2022-12-05T06:37:14;101756.13;;;7.91;nan
48862;BME280;34681;49.188;-0.374;2022-12-05T06:39:40;101758.63;;;7.81;nan
48862;BME280;34681;49.188;-0.374;2022-12-05T06:42:05;101752.41;;;7.79;nan
48862;BME280;34681;49.188;-0.374;2022-12-05T06:44:31;101756.00;;;7.79;nan
48862;BME280;34681;49.188;-0.374;2022-12-05T06:46:56;101756.44;;;7.86;nan
48862;BME280;34681;49.188;-0.374;2022-12-05T06:49:22;101757.97;;;7.90;nan
48862;BME280;34681;49.188;-0.374;2022-12-05T06:51:51;101762.91;;;7.98;nan
48862;BME280;34681;49.188;-0.374;2022-12-05T06:54:17;101760.06;;;7.86;nan
48862;BME280;34681;49.188;-0.374;2022-12-05T06:56:42;101759.50;;;7.94;nan
48862;BME280;34681;49.188;-0.374;2022-12-05T06:59:07;101759.97;;;8.01;nan
48862;BME280;34681;49.188;-0.374;2022-12-05T07:01:33;101757.97;;;7.90;nan
48862;BME280;34681;49.188;-0.374;2022-12-05T07:04:19;101771.72;;;7.88;nan
48862;BME280;34681;49.188;-0.374;2022-12-05T07:06:48;101763.03;;;7.96;nan
48862;BME280;34681;49.188;-0.374;2022-12-05T07:09:14;101765.19;;;7.91;nan
48862;BME280;34681;49.188;-0.374;2022-12-05T07:11:39;101767.25;;;8.00;nan
48862;BME280;34681;49.188;-0.374;2022-12-05T07:14:05;101767.13;;;7.89;nan
48862;BME280;34681;49.188;-0.374;2022-12-05T07:16:31;101769.22;;;7.98;nan
48862;BME280;34681;49.188;-0.374;2022-12-05T07:18:57;101777.94;;;7.91;nan
48862;BME280;34681;49.188;-0.374;2022-12-05T07:21:22;101771.03;;;7.85;nan
48862;BME280;34681;49.188;-0.374;2022-12-05T07:23:49;101767.91;;;7.91;nan
48862;BME280;34681;49.188;-0.374;2022-12-05T07:26:17;101774.88;;;7.55;nan
48862;BME280;34681;49.188;-0.374;2022-12-05T07:28:43;101773.31;;;7.10;nan
48862;BME280;34681;49.188;-0.374;2022-12-05T07:31:11;101779.06;;;7.06;nan
48862;BME280;34681;49.188;-0.374;2022-12-05T07:33:37;101778.88;;;7.50;nan
48862;BME280;34681;49.188;-0.374;2022-12-05T07:36:09;101770.47;;;7.53;nan
48862;BME280;34681;49.188;-0.374;2022-12-05T07:38:35;101775.22;;;7.64;nan
48862;BME280;34681;49.188;-0.374;2022-12-05T07:41:09;101776.75;;;7.68;nan
48862;BME280;34681;49.188;-0.374;2022-12-05T07:43:34;101790.22;;;7.56;nan
48862;BME280;34681;49.188;-0.374;2022-12-05T07:46:03;101787.13;;;7.75;nan
48862;BME280;34681;49.188;-0.374;2022-12-05T07:48:29;101789.13;;;7.86;nan
48862;BME280;34681;49.188;-0.374;2022-12-05T07:50:59;101791.78;;;7.87;nan
48862;BME280;34681;49.188;-0.374;2022-12-05T07:53:24;101794.38;;;7.89;nan
48862;BME280;34681;49.188;-0.374;2022-12-05T07:55:50;101800.50;;;7.93;nan
48862;BME280;34681;49.188;-0.374;2022-12-05T07:58:15;101799.16;;;7.85;nan
48862;BME280;34681;49.188;-0.374;2022-12-05T08:00:40;101810.41;;;7.94;nan
48862;BME280;34681;49.188;-0.374;2022-12-05T08:03:06;101811.63;;;8.02;nan
48862;BME280;34681;49.188;-0.374;2022-12-05T08:05:32;101807.97;;;8.16;nan
48862;BME280;34681;49.188;-0.374;2022-12-05T08:07:57;101812.22;;;8.07;nan
48862;BME280;34681;49.188;-0.374;2022-12-05T08:10:23;101813.59;;;8.00;nan
48862;BME280;34681;49.188;-0.374;2022-12-05T08:12:48;101813.06;;;8.08;nan
48862;BME280;34681;49.188;-0.374;2022-12-05T08:15:14;101820.91;;;8.00;nan
48862;BME280;34681;49.188;-0.374;2022-12-05T08:17:39;101820.38;;;8.07;nan
48862;BME280;34681;49.188;-0.374;2022-12-05T08:20:05;101821.31;;;8.21;nan
48862;BME280;34681;49.188;-0.374;2022-12-05T08:22:31;101819.00;;;8.27;nan
48862;BME280;34681;49.188;-0.374;2022-12-05T08:24:56;101818.06;;;8.28;nan
48862;BME280;34681;49.188;-0.374;2022-12-05T08:27:22;101822.41;;;8.31;nan
48862;BME280;34681;49.188;-0.374;2022-12-05T08:29:47;101831.34;;;8.33;nan
48862;BME280;34681;49.188;-0.374;2022-12-05T08:32:12;101835.56;;;8.38;nan
48862;BME280;34681;49.188;-0.374;2022-12-05T08:34:38;101836.78;;;8.47;nan
48862;BME280;34681;49.188;-0.374;2022-12-05T08:37:03;101833.06;;;8.48;nan
48862;BME280;34681;49.188;-0.374;2022-12-05T08:39:28;101833.16;;;8.47;nan
48862;BME280;34681;49.188;-0.374;2022-12-05T08:41:54;101844.28;;;8.43;nan
48862;BME280;34681;49.188;-0.374;2022-12-05T08:44:19;101843.44;;;8.56;nan
48862;BME280;34681;49.188;-0.374;2022-12-05T08:46:47;101839.19;;;8.64;nan
48862;BME280;34681;49.188;-0.374;2022-12-05T08:49:13;101848.25;;;8.65;nan
48862;BME280;34681;49.188;-0.374;2022-12-05T08:51:40;101842.56;;;8.55;nan
48862;BME280;34681;49.188;-0.374;2022-12-05T08:54:06;101843.78;;;8.64;nan
48862;BME280;34681;49.188;-0.374;2022-12-05T08:56:31;101848.47;;;8.75;nan
48862;BME280;34681;49.188;-0.374;2022-12-05T08:58:58;101847.16;;;8.67;nan
48862;BME280;34681;49.188;-0.374;2022-12-05T09:01:23;101847.25;;;8.53;nan
48862;BME280;34681;49.188;-0.374;2022-12-05T09:03:56;101848.81;;;8.70;nan
48862;BME280;34681;49.188;-0.374;2022-12-05T09:06:23;101846.59;;;8.75;nan
48862;BME280;34681;49.188;-0.374;2022-12-05T09:08:53;101852.38;;;8.58;nan
48862;BME280;34681;49.188;-0.374;2022-12-05T09:11:21;101854.47;;;8.54;nan
48862;BME280;34681;49.188;-0.374;2022-12-05T09:13:49;101853.63;;;8.79;nan
48862;BME280;34681;49.188;-0.374;2022-12-05T09:16:18;101854.03;;;8.73;nan
48862;BME280;34681;49.188;-0.374;2022-12-05T09:18:44;101846.91;;;8.58;nan
48862;BME280;34681;49.188;-0.374;2022-12-05T09:21:36;101854.91;;;8.34;nan
48862;BME280;34681;49.188;-0.374;2022-12-05T09:24:02;101853.72;;;7.98;nan
48862;BME280;34681;49.188;-0.374;2022-12-05T09:26:28;101854.44;;;8.14;nan
48862;BME280;34681;49.188;-0.374;2022-12-05T09:28:54;101850.09;;;8.25;nan
48862;BME280;34681;49.188;-0.374;2022-12-05T09:31:23;101852.06;;;8.75;nan
48862;BME280;34681;49.188;-0.374;2022-12-05T09:33:50;101859.81;;;8.68;nan
48862;BME280;34681;49.188;-0.374;2022-12-05T09:36:24;101856.00;;;8.71;nan
48862;BME280;34681;49.188;-0.374;2022-12-05T09:38:50;101854.47;;;9.05;nan
48862;BME280;34681;49.188;-0.374;2022-12-05T09:43:53;101874.88;;;9.25;nan
48862;BME280;34681;49.188;-0.374;2022-12-05T09:48:50;101876.78;;;8.86;nan
48862;BME280;34681;49.188;-0.374;2022-12-05T09:51:16;101872.72;;;9.05;nan
48862;BME280;34681;49.188;-0.374;2022-12-05T09:53:42;101880.16;;;9.03;nan
48862;BME280;34681;49.188;-0.374;2022-12-05T09:58:41;101885.28;;;9.20;nan
48862;BME280;34681;49.188;-0.374;2022-12-05T10:06:37;101887.53;;;7.96;nan
48862;BME280;34681;49.188;-0.374;2022-12-05T10:09:27;101890.84;;;8.13;nan
48862;BME280;34681;49.188;-0.374;2022-12-05T10:12:25;101883.00;;;7.68;nan
48862;BME280;34681;49.188;-0.374;2022-12-05T10:15:03;101888.41;;;7.82;nan
48862;BME280;34681;49.188;-0.374;2022-12-05T10:17:34;101884.03;;;8.33;nan
48862;BME280;34681;49.188;-0.374;2022-12-05T10:20:18;101878.06;;;8.28;nan
48862;BME280;34681;49.188;-0.374;2022-12-05T10:22:49;101877.53;;;8.09;nan
48862;BME280;34681;49.188;-0.374;2022-12-05T10:25:19;101889.38;;;8.22;nan
48862;BME280;34681;49.188;-0.374;2022-12-05T10:27:57;101892.69;;;7.86;nan
48862;BME280;34681;49.188;-0.374;2022-12-05T10:30:28;101888.88;;;8.03;nan
48862;BME280;34681;49.188;-0.374;2022-12-05T10:33:12;101878.56;;;8.21;nan
48862;BME280;34681;49.188;-0.374;2022-12-05T10:35:39;101884.34;;;8.56;nan
48862;BME280;34681;49.188;-0.374;2022-12-05T10:38:11;101877.91;;;8.44;nan
48862;BME280;34681;49.188;-0.374;2022-12-05T10:40:49;101883.44;;;8.15;nan
48862;BME280;34681;49.188;-0.374;2022-12-05T10:43:28;101884.78;;;8.23;nan
48862;BME280;34681;49.188;-0.374;2022-12-05T10:45:55;101886.91;;;8.05;nan
48862;BME280;34681;49.188;-0.374;2022-12-05T10:48:21;101886.50;;;8.51;nan
48862;BME280;34681;49.188;-0.374;2022-12-05T10:50:57;101876.06;;;8.44;nan
48862;BME280;34681;49.188;-0.374;2022-12-05T10:53:37;101885.13;;;8.58;nan
48862;BME280;34681;49.188;-0.374;2022-12-05T10:59:09;101893.22;;;8.72;nan
48862;BME280;34681;49.188;-0.374;2022-12-05T11:01:36;101887.34;;;8.91;nan
48862;BME280;34681;49.188;-0.374;2022-12-05T11:04:09;101896.63;;;9.01;nan
48862;BME280;34681;49.188;-0.374;2022-12-05T11:06:49;101884.94;;;9.24;nan
48862;BME280;34681;49.188;-0.374;2022-12-05T11:09:21;101885.38;;;9.31;nan
48862;BME280;34681;49.188;-0.374;2022-12-05T11:14:28;101881.09;;;9.40;nan
48862;BME280;34681;49.188;-0.374;2022-12-05T11:16:56;101875.06;;;9.60;nan
48862;BME280;34681;49.188;-0.374;2022-12-05T11:21:51;101868.97;;;9.80;nan
48862;BME280;34681;49.188;-0.374;2022-12-05T11:24:30;101881.09;;;9.89;nan
48862;BME280;34681;49.188;-0.374;2022-12-05T11:26:58;101870.72;;;9.81;nan
48862;BME280;34681;49.188;-0.374;2022-12-05T11:29:36;101873.06;;;9.99;nan
48862;BME280;34681;49.188;-0.374;2022-12-05T11:32:04;101870.72;;;9.81;nan
48862;BME280;34681;49.188;-0.374;2022-12-05T11:34:49;101855.31;;;10.04;nan
48862;BME280;34681;49.188;-0.374;2022-12-05T11:37:28;101858.22;;;10.14;nan
48862;BME280;34681;49.188;-0.374;2022-12-05T11:39:55;101857.09;;;10.29;nan
48862;BME280;34681;49.188;-0.374;2022-12-05T11:50:34;101853.06;;;10.57;nan
48862;BME280;34681;49.188;-0.374;2022-12-05T11:53:11;101856.31;;;10.51;nan
48862;BME280;34681;49.188;-0.374;2022-12-05T11:55:55;101848.88;;;10.76;nan
48862;BME280;34681;49.188;-0.374;2022-12-05T12:09:51;101862.22;;;10.80;nan
48862;BME280;34681;49.188;-0.374;2022-12-05T12:14:52;101854.25;;;10.77;nan
48862;BME280;34681;49.188;-0.374;2022-12-05T12:17:30;101854.53;;;10.85;nan
48862;BME280;34681;49.188;-0.374;2022-12-05T12:22:54;101848.97;;;11.09;nan
48862;BME280;34681;49.188;-0.374;2022-12-05T12:28:14;101833.38;;;10.17;nan
48862;BME280;34681;49.188;-0.374;2022-12-05T12:36:35;101826.25;;;10.27;nan
48862;BME280;34681;49.188;-0.374;2022-12-05T12:42:05;101832.50;;;10.17;nan
48862;BME280;34681;49.188;-0.374;2022-12-05T12:44:57;101844.09;;;10.20;nan
48862;BME280;34681;49.188;-0.374;2022-12-05T12:47:48;101836.19;;;10.04;nan
48862;BME280;34681;49.188;-0.374;2022-12-05T12:50:22;101833.19;;;10.07;nan
48862;BME280;34681;49.188;-0.374;2022-12-05T13:00:46;101829.38;;;8.87;nan
48862;BME280;34681;49.188;-0.374;2022-12-05T13:03:21;101828.09;;;9.42;nan
48862;BME280;34681;49.188;-0.374;2022-12-05T13:08:26;101822.44;;;8.43;nan
48862;BME280;34681;49.188;-0.374;2022-12-05T13:10:53;101818.47;;;8.87;nan
48862;BME280;34681;49.188;-0.374;2022-12-05T13:13:22;101825.00;;;8.85;nan
48862;BME280;34681;49.188;-0.374;2022-12-05T13:15:51;101812.06;;;9.25;nan
48862;BME280;34681;49.188;-0.374;2022-12-05T13:18:24;101826.75;;;9.61;nan
48862;BME280;34681;49.188;-0.374;2022-12-05T13:20:53;101829.69;;;9.08;nan
48862;BME280;34681;49.188;-0.374;2022-12-05T13:23:44;101832.28;;;8.59;nan
48862;BME280;34681;49.188;-0.374;2022-12-05T13:26:12;101839.09;;;9.04;nan
48862;BME280;34681;49.188;-0.374;2022-12-05T13:28:46;101821.97;;;9.75;nan
48862;BME280;34681;49.188;-0.374;2022-12-05T13:31:13;101819.44;;;9.85;nan
48862;BME280;34681;49.188;-0.374;2022-12-05T13:33:48;101823.38;;;9.81;nan
48862;BME280;34681;49.188;-0.374;2022-12-05T13:36:17;101816.78;;;9.83;nan
48862;BME280;34681;49.188;-0.374;2022-12-05T13:39:18;101826.41;;;9.16;nan
48862;BME280;34681;49.188;-0.374;2022-12-05T13:42:04;101829.06;;;9.41;nan
48862;BME280;34681;49.188;-0.374;2022-12-05T13:50:39;101831.22;;;8.74;nan
48862;BME280;34681;49.188;-0.374;2022-12-05T13:56:05;101829.69;;;9.08;nan
48862;BME280;34681;49.188;-0.374;2022-12-05T14:17:40;101839.84;;;8.55;nan
48862;BME280;34681;49.188;-0.374;2022-12-05T14:23:08;101825.53;;;8.52;nan
48862;BME280;34681;49.188;-0.374;2022-12-05T14:34:32;101829.56;;;8.84;nan
48862;BME280;34681;49.188;-0.374;2022-12-05T14:39:46;101838.06;;;8.14;nan
48862;BME280;34681;49.188;-0.374;2022-12-05T14:44:53;101850.28;;;8.49;nan
48862;BME280;34681;49.188;-0.374;2022-12-05T14:47:27;101848.66;;;8.46;nan
48862;BME280;34681;49.188;-0.374;2022-12-05T14:50:00;101836.78;;;8.20;nan
48862;BME280;34681;49.188;-0.374;2022-12-05T15:01:29;101846.44;;;9.53;nan
48862;BME280;34681;49.188;-0.374;2022-12-05T15:06:33;101839.88;;;9.55;nan
48862;BME280;34681;49.188;-0.374;2022-12-05T15:09:04;101838.97;;;9.06;nan
48862;BME280;34681;49.188;-0.374;2022-12-05T15:11:30;101838.06;;;9.43;nan
48862;BME280;34681;49.188;-0.374;2022-12-05T15:14:11;101849.44;;;8.99;nan
48862;BME280;34681;49.188;-0.374;2022-12-05T15:16:42;101852.63;;;9.06;nan
48862;BME280;34681;49.188;-0.374;2022-12-05T15:19:32;101855.44;;;9.29;nan
48862;BME280;34681;49.188;-0.374;2022-12-05T15:22:05;101855.13;;;8.70;nan
48862;BME280;34681;49.188;-0.374;2022-12-05T15:24:36;101847.81;;;9.09;nan
48862;BME280;34681;49.188;-0.374;2022-12-05T15:27:03;101858.19;;;9.17;nan
48862;BME280;34681;49.188;-0.374;2022-12-05T15:29:30;101849.44;;;8.73;nan
48862;BME280;34681;49.188;-0.374;2022-12-05T15:35:08;101853.22;;;8.18;nan
48862;BME280;34681;49.188;-0.374;2022-12-05T15:38:40;101856.09;;;7.90;nan
48862;BME280;34681;49.188;-0.374;2022-12-05T15:40:46;101851.56;;;8.03;nan
48862;BME280;34681;49.188;-0.374;2022-12-05T15:45:49;101859.06;;;8.92;nan
48862;BME280;34681;49.188;-0.374;2022-12-05T15:48:15;101851.63;;;8.68;nan
48862;BME280;34681;49.188;-0.374;2022-12-05T15:50:48;101844.88;;;8.74;nan
48862;BME280;34681;49.188;-0.374;2022-12-05T15:53:24;101849.00;;;8.54;nan
48862;BME280;34681;49.188;-0.374;2022-12-05T15:58:25;101858.53;;;9.12;nan
48862;BME280;34681;49.188;-0.374;2022-12-05T16:00:55;101855.78;;;8.61;nan
48862;BME280;34681;49.188;-0.374;2022-12-05T16:03:27;101845.09;;;8.31;nan
48862;BME280;34681;49.188;-0.374;2022-12-05T16:06:00;101851.84;;;8.91;nan
48862;BME280;34681;49.188;-0.374;2022-12-05T16:08:29;101847.72;;;8.98;nan
48862;BME280;34681;49.188;-0.374;2022-12-05T16:11:12;101851.41;;;8.84;nan
48862;BME280;34681;49.188;-0.374;2022-12-05T16:13:51;101853.94;;;8.87;nan
48862;BME280;34681;49.188;-0.374;2022-12-05T16:16:21;101863.53;;;8.80;nan
48862;BME280;34681;49.188;-0.374;2022-12-05T16:18:58;101871.72;;;9.18;nan
48862;BME280;34681;49.188;-0.374;2022-12-05T16:21:38;101868.44;;;9.00;nan